Querinda Park, New Mexico
Current Conditions -  °F | °C
As of 5:15 AM on Sunday 23 Nov 2014 (Local Time) from KAXX Reporting Station
Broken Clouds Broken Clouds  
Wind Chill: -6°   Ceiling: 5000
Heat Index: -2°   Visibility: 10mi
Dew Point: -6°   Wind: 7mph
Humidity: 74%   Direction: 270°W
Pressure: 29.73"   Gusts: NA
Location:  36.7124°N, 105.403°W
Report Text: KAXX 231215Z AUTO 27006KT 10SM SCT037 SCT043 BKN050 M02/M06 A2973 RMK AO2 T10221062
Loading
Personal Weather Stations






























Interactive Weather Map New forecast layout! Learn more

10-Day Weather Forecast

Advertisements
Track Severe Weather on mobile